KICR

Winner Regional Airport

Winner, South Dakota, USA
METAR KICR 170653Z AUTO 15007KT 10SM CLR 01/M04 A3015 RMK AO2 SLP221 T00111039
Observed Flight Rules
Dec-17 @ 06:53 UTC (an hour ago) Visual Flight Rules
Wind Visibility Clouds
150° at 7 knots 10 miles
  • Clear skies
Temperatures Readings
Current 1°C / 34°F
Dewpoint -4°C / 25°F
Humidity 70%
Altimeter 30.15" Hg
Pressure 1022.1 hPa
Elevation 621
METAR KICR 170653Z AUTO 15007KT 10SM CLR 01/M04 A3015 RMK AO2 SLP221 T00111039
Observed Flight Rules
Dec-17 @ 06:53 UTC
(an hour ago)
VFR
Wind Visibility
150° at 7 knots 10 miles
Clouds
  • Clear skies
Temperature Dewpoint
1°C / 34°F -4°C / 25°F
Humidity Altimeter Pressure
70% 30.15" Hg 1022.1 hPa